Time,TemperatureF,DewpointF,PressureIn,WindDirection,WindDirectionDegrees,WindSpeedMPH,WindSpeedGustMPH,Humidity,HourlyPrecipIn,Conditions,Clouds,dailyrainin,SolarRadiationWatts/m^2,SoftwareType,DateUTC
2013-01-15 00:01:00,9.6,4.1,29.94,North,-999,0.0,3.0,78,0.00,,,0.00,0.00,VWS V14.01,2013-01-15 07:01:00,
2013-01-15 00:06:00,9.6,4.1,29.93,North,-999,3.0,4.0,78,0.00,,,0.00,0.00,VWS V14.01,2013-01-15 07:06:00,
2013-01-15 00:11:00,9.6,4.1,29.94,North,-999,0.0,5.0,78,0.00,,,0.00,0.00,VWS V14.01,2013-01-15 07:11:00,
2013-01-15 00:16:00,9.5,4.3,29.94,North,-999,2.0,5.0,79,0.00,,,0.00,0.00,VWS V14.01,2013-01-15 07:16:00,
2013-01-15 00:21:00,9.4,4.5,29.94,North,-999,3.0,5.0,80,0.00,,,0.00,0.00,VWS V14.01,2013-01-15 07:21:00,
2013-01-15 00:26:00,9.4,4.5,29.94,North,-999,0.0,5.0,80,0.00,,,0.00,0.00,VWS V14.01,2013-01-15 07:26:00,
2013-01-15 00:31:00,9.3,4.4,29.94,North,-999,0.0,4.0,80,0.00,,,0.00,0.00,VWS V14.01,2013-01-15 07:31:00,
2013-01-15 00:36:00,9.3,4.7,29.95,North,-999,3.0,6.0,81,0.00,,,0.00,0.00,VWS V14.01,2013-01-15 07:36:00,
2013-01-15 00:41:00,9.3,4.7,29.95,North,-999,5.0,8.0,81,0.00,,,0.00,0.00,VWS V14.01,2013-01-15 07:41:00,
2013-01-15 00:46:00,9.3,4.9,29.95,North,-999,3.0,8.0,82,0.00,,,0.00,0.00,VWS V14.01,2013-01-15 07:46:00,
2013-01-15 00:51:00,9.3,5.2,29.95,North,-999,3.0,7.0,83,0.00,,,0.00,0.00,VWS V14.01,2013-01-15 07:51:00,
2013-01-15 00:56:00,9.2,5.1,29.95,North,-999,4.0,7.0,83,0.00,,,0.00,0.00,VWS V14.01,2013-01-15 07:56:00,
2013-01-15 01:01:00,9.2,5.1,29.95,North,-999,0.0,5.0,83,0.00,,,0.00,0.00,VWS V14.01,2013-01-15 08:01:00,
2013-01-15 01:06:00,9.2,5.1,29.95,North,-999,1.0,6.0,83,0.00,,,0.00,0.00,VWS V14.01,2013-01-15 08:06:00,
2013-01-15 01:11:00,9.2,5.1,29.95,North,-999,2.0,4.0,83,0.00,,,0.00,0.00,VWS V14.01,2013-01-15 08:11:00,
2013-01-15 01:16:00,9.1,5.0,29.95,North,-999,4.0,5.0,83,0.00,,,0.00,0.00,VWS V14.01,2013-01-15 08:16:00,
2013-01-15 01:21:00,9.0,4.9,29.96,North,-999,1.0,4.0,83,0.00,,,0.00,0.00,VWS V14.01,2013-01-15 08:21:00,
2013-01-15 01:26:00,9.0,5.2,29.95,North,-999,2.0,4.0,84,0.00,,,0.00,0.00,VWS V14.01,2013-01-15 08:26:00,
2013-01-15 01:31:00,9.0,5.2,29.95,North,-999,0.0,0.0,84,0.00,,,0.00,0.00,VWS V14.01,2013-01-15 08:31:00,
2013-01-15 01:36:00,8.9,5.1,29.96,North,-999,0.0,0.0,84,0.00,,,0.00,0.00,VWS V14.01,2013-01-15 08:36:00,
2013-01-15 01:41:00,9.0,5.2,29.96,North,-999,0.0,0.0,84,0.00,,,0.00,0.00,VWS V14.01,2013-01-15 08:41:00,
2013-01-15 01:46:00,9.1,5.5,29.96,North,-999,0.0,0.0,85,0.00,,,0.00,0.00,VWS V14.01,2013-01-15 08:46:00,
2013-01-15 01:51:00,9.2,5.6,29.96,North,-999,0.0,0.0,85,0.00,,,0.00,0.00,VWS V14.01,2013-01-15 08:51:00,
2013-01-15 01:56:00,9.2,5.6,29.95,North,-999,0.0,2.0,85,0.00,,,0.00,0.00,VWS V14.01,2013-01-15 08:56:00,
2013-01-15 02:01:00,9.2,5.6,29.95,North,-999,0.0,2.0,85,0.00,,,0.00,0.00,VWS V14.01,2013-01-15 09:01:00,
2013-01-15 02:06:00,9.2,5.6,29.95,North,-999,0.0,3.0,85,0.00,,,0.00,0.00,VWS V14.01,2013-01-15 09:06:00,
2013-01-15 02:11:00,9.2,5.4,29.95,North,-999,4.0,5.0,84,0.00,,,0.00,0.00,VWS V14.01,2013-01-15 09:11:00,
2013-01-15 02:16:00,9.1,5.3,29.96,North,-999,1.0,6.0,84,0.00,,,0.00,0.00,VWS V14.01,2013-01-15 09:16:00,
2013-01-15 02:21:00,9.1,5.3,29.96,North,-999,0.0,2.0,84,0.00,,,0.00,0.00,VWS V14.01,2013-01-15 09:21:00,
2013-01-15 02:26:00,9.1,5.3,29.96,North,-999,0.0,2.0,84,0.00,,,0.00,0.00,VWS V14.01,2013-01-15 09:26:00,
2013-01-15 02:31:00,9.0,5.2,29.96,North,-999,0.0,4.0,84,0.00,,,0.00,0.00,VWS V14.01,2013-01-15 09:31:00,
2013-01-15 02:36:00,9.0,5.2,29.96,North,-999,4.0,5.0,84,0.00,,,0.00,0.00,VWS V14.01,2013-01-15 09:36:00,
2013-01-15 02:41:00,9.0,5.2,29.96,North,-999,0.0,4.0,84,0.00,,,0.00,0.00,VWS V14.01,2013-01-15 09:41:00,
2013-01-15 02:46:00,9.0,5.2,29.96,North,-999,0.0,4.0,84,0.00,,,0.00,0.00,VWS V14.01,2013-01-15 09:46:00,
2013-01-15 02:51:00,9.1,5.3,29.96,North,-999,1.0,2.0,84,0.00,,,0.00,0.00,VWS V14.01,2013-01-15 09:51:00,
2013-01-15 02:56:00,9.1,5.0,29.96,North,-999,0.0,3.0,83,0.00,,,0.00,0.00,VWS V14.01,2013-01-15 09:56:00,
2013-01-15 03:01:00,9.2,5.1,29.96,North,-999,2.0,5.0,83,0.00,,,0.00,0.00,VWS V14.01,2013-01-15 10:01:00,
2013-01-15 03:06:00,9.2,5.1,29.98,North,-999,0.0,5.0,83,0.00,,,0.00,0.00,VWS V14.01,2013-01-15 10:06:00,
2013-01-15 03:11:00,9.2,5.1,29.97,North,-999,2.0,2.0,83,0.00,,,0.00,0.00,VWS V14.01,2013-01-15 10:11:00,
2013-01-15 03:16:00,9.2,5.1,29.97,North,-999,3.0,7.0,83,0.00,,,0.00,0.00,VWS V14.01,2013-01-15 10:16:00,
2013-01-15 03:21:00,9.2,5.1,29.97,North,-999,3.0,7.0,83,0.00,,,0.00,0.00,VWS V14.01,2013-01-15 10:21:00,
2013-01-15 03:26:00,9.2,5.4,29.98,North,-999,1.0,10.0,84,0.00,,,0.00,0.00,VWS V14.01,2013-01-15 10:26:00,
2013-01-15 03:31:00,9.2,5.4,29.98,North,-999,7.0,10.0,84,0.00,,,0.00,0.00,VWS V14.01,2013-01-15 10:31:00,
2013-01-15 03:36:00,9.1,5.3,29.97,North,-999,2.0,10.0,84,0.00,,,0.00,0.00,VWS V14.01,2013-01-15 10:36:00,
2013-01-15 03:41:00,9.1,5.5,29.96,North,-999,2.0,6.0,85,0.00,,,0.00,0.00,VWS V14.01,2013-01-15 10:41:00,
2013-01-15 03:46:00,9.1,5.5,29.97,North,-999,0.0,7.0,85,0.00,,,0.00,0.00,VWS V14.01,2013-01-15 10:46:00,
2013-01-15 03:51:00,9.1,5.5,29.96,North,-999,0.0,4.0,85,0.00,,,0.00,0.00,VWS V14.01,2013-01-15 10:51:00,
2013-01-15 03:56:00,9.1,5.5,29.97,North,-999,2.0,5.0,85,0.00,,,0.00,0.00,VWS V14.01,2013-01-15 10:56:00,
2013-01-15 04:01:00,9.2,5.9,29.97,North,-999,0.0,4.0,86,0.00,,,0.00,0.00,VWS V14.01,2013-01-15 11:01:00,
2013-01-15 04:06:00,9.3,6.0,29.97,North,-999,0.0,5.0,86,0.00,,,0.00,0.00,VWS V14.01,2013-01-15 11:06:00,
2013-01-15 04:11:00,9.4,6.1,29.97,North,-999,1.0,3.0,86,0.00,,,0.00,0.00,VWS V14.01,2013-01-15 11:11:00,
2013-01-15 04:16:00,9.5,6.2,29.97,North,-999,3.0,6.0,86,0.00,,,0.00,0.00,VWS V14.01,2013-01-15 11:16:00,
2013-01-15 04:21:00,9.5,6.2,29.97,North,-999,0.0,0.0,86,0.00,,,0.00,0.00,VWS V14.01,2013-01-15 11:21:00,
2013-01-15 04:26:00,9.6,6.3,29.97,North,-999,0.0,0.0,86,0.00,,,0.00,0.00,VWS V14.01,2013-01-15 11:26:00,
2013-01-15 04:31:00,9.6,6.5,29.97,North,-999,2.0,5.0,87,0.00,,,0.00,0.00,VWS V14.01,2013-01-15 11:31:00,
2013-01-15 04:36:00,9.8,6.7,29.97,North,-999,2.0,5.0,87,0.00,,,0.00,0.00,VWS V14.01,2013-01-15 11:36:00,
2013-01-15 04:41:00,9.9,6.8,29.97,North,-999,0.0,3.0,87,0.00,,,0.00,0.00,VWS V14.01,2013-01-15 11:41:00,
2013-01-15 04:46:00,9.9,6.8,29.97,North,-999,1.0,6.0,87,0.00,,,0.00,0.00,VWS V14.01,2013-01-15 11:46:00,
2013-01-15 04:51:00,10.0,6.9,29.97,North,-999,2.0,5.0,87,0.00,,,0.00,0.00,VWS V14.01,2013-01-15 11:51:00,
2013-01-15 04:56:00,10.1,7.0,29.97,North,-999,0.0,6.0,87,0.00,,,0.00,0.00,VWS V14.01,2013-01-15 11:56:00,
2013-01-15 05:01:00,10.0,6.9,29.98,North,-999,0.0,0.0,87,0.00,,,0.00,0.00,VWS V14.01,2013-01-15 12:01:00,
2013-01-15 05:06:00,10.1,7.0,29.97,North,-999,0.0,0.0,87,0.00,,,0.00,0.00,VWS V14.01,2013-01-15 12:06:00,
2013-01-15 05:11:00,10.2,7.4,29.97,North,-999,0.0,0.0,88,0.00,,,0.00,0.00,VWS V14.01,2013-01-15 12:11:00,
2013-01-15 05:16:00,10.4,7.6,29.97,North,-999,0.0,2.0,88,0.00,,,0.00,0.00,VWS V14.01,2013-01-15 12:16:00,
2013-01-15 05:21:00,10.5,7.7,29.96,North,-999,1.0,3.0,88,0.00,,,0.00,0.00,VWS V14.01,2013-01-15 12:21:00,
2013-01-15 05:26:00,10.7,7.8,29.96,North,-999,2.0,4.0,88,0.00,,,0.00,0.00,VWS V14.01,2013-01-15 12:26:00,
2013-01-15 05:31:00,10.8,7.7,29.96,North,-999,3.0,7.0,87,0.00,,,0.00,0.00,VWS V14.01,2013-01-15 12:31:00,
2013-01-15 05:36:00,10.8,7.7,29.96,North,-999,3.0,7.0,87,0.00,,,0.00,0.00,VWS V14.01,2013-01-15 12:36:00,
2013-01-15 05:41:00,10.8,7.7,29.97,North,-999,3.0,4.0,87,0.00,,,0.00,0.00,VWS V14.01,2013-01-15 12:41:00,
2013-01-15 05:46:00,10.7,7.6,29.97,North,-999,1.0,5.0,87,0.00,,,0.00,0.00,VWS V14.01,2013-01-15 12:46:00,
2013-01-15 05:51:00,10.8,7.7,29.98,North,-999,2.0,5.0,87,0.00,,,0.00,0.00,VWS V14.01,2013-01-15 12:51:00,
2013-01-15 05:56:00,10.7,7.6,29.97,North,-999,2.0,6.0,87,0.00,,,0.00,0.00,VWS V14.01,2013-01-15 12:56:00,
2013-01-15 06:01:00,10.8,7.7,29.98,North,-999,2.0,5.0,87,0.00,,,0.00,0.00,VWS V14.01,2013-01-15 13:01:00,
2013-01-15 06:06:00,10.7,7.6,29.98,North,-999,1.0,5.0,87,0.00,,,0.00,0.00,VWS V14.01,2013-01-15 13:06:00,
2013-01-15 06:11:00,10.8,7.4,29.99,North,-999,4.0,6.0,86,0.00,,,0.00,0.00,VWS V14.01,2013-01-15 13:11:00,
2013-01-15 06:16:00,10.8,7.4,29.98,North,-999,3.0,6.0,86,0.00,,,0.00,0.00,VWS V14.01,2013-01-15 13:16:00,
2013-01-15 06:21:00,10.9,7.5,29.98,North,-999,1.0,6.0,86,0.00,,,0.00,0.00,VWS V14.01,2013-01-15 13:21:00,
2013-01-15 06:26:00,11.0,7.6,29.98,North,-999,1.0,6.0,86,0.00,,,0.00,0.00,VWS V14.01,2013-01-15 13:26:00,
2013-01-15 06:31:00,11.1,8.0,29.98,North,-999,2.0,3.0,87,0.00,,,0.00,0.00,VWS V14.01,2013-01-15 13:31:00,
2013-01-15 06:36:00,11.2,8.1,29.98,North,-999,0.0,3.0,87,0.00,,,0.00,0.00,VWS V14.01,2013-01-15 13:36:00,
2013-01-15 06:41:00,11.3,7.9,29.98,North,-999,0.0,4.0,86,0.00,,,0.00,0.00,VWS V14.01,2013-01-15 13:41:00,
2013-01-15 06:46:00,11.3,7.9,29.98,North,-999,0.0,4.0,86,0.00,,,0.00,0.00,VWS V14.01,2013-01-15 13:46:00,
2013-01-15 06:51:00,11.4,8.0,29.98,North,-999,0.0,4.0,86,0.00,,,0.00,0.00,VWS V14.01,2013-01-15 13:51:00,
2013-01-15 06:56:00,11.5,8.1,29.98,North,-999,0.0,4.0,86,0.00,,,0.00,0.00,VWS V14.01,2013-01-15 13:56:00,
2013-01-15 07:01:00,11.5,8.1,29.98,North,-999,0.0,0.0,86,0.00,,,0.00,0.00,VWS V14.01,2013-01-15 14:01:00,
2013-01-15 07:06:00,11.5,8.1,29.98,North,-999,0.0,5.0,86,0.00,,,0.00,0.00,VWS V14.01,2013-01-15 14:06:00,
2013-01-15 07:10:00,11.6,8.2,29.98,North,-999,0.0,1.0,86,0.00,,,0.00,0.00,VWS V14.01,2013-01-15 14:10:00,
2013-01-15 07:15:00,11.7,8.3,29.98,North,-999,0.0,3.0,86,0.00,,,0.00,0.00,VWS V14.01,2013-01-15 14:15:00,
2013-01-15 07:20:00,11.7,8.3,29.98,North,-999,0.0,0.0,86,0.00,,,0.00,0.00,VWS V14.01,2013-01-15 14:20:00,
2013-01-15 07:25:00,11.7,8.3,29.98,North,-999,0.0,4.0,86,0.00,,,0.00,0.00,VWS V14.01,2013-01-15 14:25:00,
2013-01-15 07:30:00,11.8,8.4,29.99,North,-999,0.0,0.0,86,0.00,,,0.00,0.00,VWS V14.01,2013-01-15 14:30:00,
2013-01-15 07:35:00,11.8,8.4,29.98,North,-999,0.0,0.0,86,0.00,,,0.00,0.00,VWS V14.01,2013-01-15 14:35:00,
2013-01-15 07:40:00,11.8,8.4,29.98,North,-999,0.0,0.0,86,0.00,,,0.00,5.00,VWS V14.01,2013-01-15 14:40:00,
2013-01-15 07:45:00,11.9,8.3,29.99,North,-999,0.0,0.0,85,0.00,,,0.00,7.00,VWS V14.01,2013-01-15 14:45:00,
2013-01-15 07:50:00,12.0,8.4,29.99,North,-999,2.0,3.0,85,0.00,,,0.00,9.00,VWS V14.01,2013-01-15 14:50:00,
2013-01-15 07:55:00,12.0,8.4,29.99,North,-999,0.0,3.0,85,0.00,,,0.00,9.00,VWS V14.01,2013-01-15 14:55:00,
2013-01-15 08:00:00,12.0,8.4,29.99,North,-999,0.0,0.0,85,0.00,,,0.00,12.00,VWS V14.01,2013-01-15 15:00:00,
2013-01-15 08:05:00,12.1,8.5,30.00,North,-999,0.0,0.0,85,0.00,,,0.00,12.00,VWS V14.01,2013-01-15 15:05:00,
2013-01-15 08:10:00,12.1,8.5,30.00,North,-999,0.0,2.0,85,0.00,,,0.00,14.00,VWS V14.01,2013-01-15 15:10:00,
2013-01-15 08:15:00,12.2,10.6,30.00,North,-999,0.0,4.0,93,0.00,,,0.00,21.00,VWS V14.01,2013-01-15 15:15:00,
2013-01-15 08:20:00,12.4,8.5,30.00,North,-999,0.0,0.0,84,0.00,,,0.00,32.00,VWS V14.01,2013-01-15 15:20:00,
2013-01-15 08:25:00,12.5,8.6,30.00,North,-999,0.0,6.0,84,0.00,,,0.00,39.00,VWS V14.01,2013-01-15 15:25:00,
2013-01-15 08:30:00,12.6,8.7,30.00,North,-999,0.0,4.0,84,0.00,,,0.00,46.00,VWS V14.01,2013-01-15 15:30:00,
2013-01-15 08:35:00,12.7,8.8,30.00,North,-999,2.0,6.0,84,0.00,,,0.00,47.00,VWS V14.01,2013-01-15 15:35:00,
2013-01-15 08:40:00,12.8,8.6,30.00,North,-999,4.0,5.0,83,0.00,,,0.00,46.00,VWS V14.01,2013-01-15 15:40:00,
2013-01-15 08:45:00,12.9,8.4,30.00,North,-999,5.0,5.0,82,0.00,,,0.00,54.00,VWS V14.01,2013-01-15 15:45:00,
2013-01-15 08:50:00,13.0,8.3,30.00,North,-999,1.0,4.0,81,0.00,,,0.00,60.00,VWS V14.01,2013-01-15 15:50:00,
2013-01-15 08:55:00,13.0,8.3,30.00,North,-999,2.0,6.0,81,0.00,,,0.00,60.00,VWS V14.01,2013-01-15 15:55:00,
2013-01-15 09:00:00,13.2,8.5,30.01,North,-999,2.0,3.0,81,0.00,,,0.00,60.00,VWS V14.01,2013-01-15 16:00:00,
2013-01-15 09:05:00,13.2,8.8,30.01,North,-999,2.0,3.0,82,0.00,,,0.00,72.00,VWS V14.01,2013-01-15 16:05:00,
2013-01-15 09:10:00,13.1,8.9,30.00,North,-999,0.0,4.0,83,0.00,,,0.00,81.00,VWS V14.01,2013-01-15 16:10:00,
2013-01-15 09:15:00,13.0,8.8,30.01,North,-999,1.0,4.0,83,0.00,,,0.00,100.00,VWS V14.01,2013-01-15 16:15:00,
2013-01-15 09:20:00,13.0,8.8,30.01,North,-999,0.0,5.0,83,0.00,,,0.00,98.00,VWS V14.01,2013-01-15 16:20:00,
2013-01-15 09:25:00,13.1,8.9,30.00,North,-999,0.0,5.0,83,0.00,,,0.00,134.00,VWS V14.01,2013-01-15 16:25:00,
2013-01-15 09:30:00,13.0,8.8,30.01,North,-999,0.0,5.0,83,0.00,,,0.00,197.00,VWS V14.01,2013-01-15 16:30:00,
2013-01-15 09:35:00,13.1,8.6,30.00,North,-999,1.0,6.0,82,0.00,,,0.00,241.00,VWS V14.01,2013-01-15 16:35:00,
2013-01-15 09:40:00,13.4,8.9,30.00,North,-999,4.0,5.0,82,0.00,,,0.00,281.00,VWS V14.01,2013-01-15 16:40:00,
2013-01-15 09:45:00,13.5,8.8,30.00,North,-999,4.0,6.0,81,0.00,,,0.00,267.00,VWS V14.01,2013-01-15 16:45:00,
2013-01-15 09:50:00,13.2,8.2,30.00,North,-999,2.0,4.0,80,0.00,,,0.00,193.00,VWS V14.01,2013-01-15 16:50:00,
2013-01-15 09:55:00,12.8,8.1,30.00,North,-999,0.0,6.0,81,0.00,,,0.00,225.00,VWS V14.01,2013-01-15 16:55:00,
2013-01-15 10:00:00,13.0,8.0,30.00,North,-999,6.0,6.0,80,0.00,,,0.00,255.00,VWS V14.01,2013-01-15 17:00:00,
2013-01-15 10:05:00,13.1,8.1,30.00,North,-999,1.0,6.0,80,0.00,,,0.00,211.00,VWS V14.01,2013-01-15 17:05:00,
2013-01-15 10:10:00,13.2,8.2,30.01,North,-999,4.0,4.0,80,0.00,,,0.00,204.00,VWS V14.01,2013-01-15 17:10:00,
2013-01-15 10:15:00,13.3,8.3,30.01,North,-999,3.0,4.0,80,0.00,,,0.00,237.00,VWS V14.01,2013-01-15 17:15:00,
2013-01-15 10:20:00,13.4,8.4,30.01,North,-999,3.0,4.0,80,0.00,,,0.00,239.00,VWS V14.01,2013-01-15 17:20:00,
2013-01-15 10:25:00,13.6,8.3,30.01,North,-999,4.0,5.0,79,0.00,,,0.00,211.00,VWS V14.01,2013-01-15 17:25:00,
2013-01-15 10:30:00,13.7,8.4,30.01,North,-999,1.0,4.0,79,0.00,,,0.00,287.00,VWS V14.01,2013-01-15 17:30:00,
2013-01-15 10:35:00,14.1,8.8,30.01,North,-999,4.0,6.0,79,0.00,,,0.00,352.00,VWS V14.01,2013-01-15 17:35:00,
2013-01-15 10:40:00,14.4,8.8,30.01,North,-999,3.0,5.0,78,0.00,,,0.00,343.00,VWS V14.01,2013-01-15 17:40:00,
2013-01-15 10:45:00,14.7,8.8,30.00,North,-999,0.0,5.0,77,0.00,,,0.00,374.00,VWS V14.01,2013-01-15 17:45:00,
2013-01-15 10:50:00,15.0,9.1,30.00,North,-999,0.0,4.0,77,0.00,,,0.00,330.00,VWS V14.01,2013-01-15 17:50:00,
2013-01-15 10:55:00,15.3,9.4,30.00,North,-999,1.0,4.0,77,0.00,,,0.00,220.00,VWS V14.01,2013-01-15 17:55:00,
2013-01-15 11:00:00,15.3,9.1,30.00,North,-999,0.0,1.0,76,0.00,,,0.00,227.00,VWS V14.01,2013-01-15 18:00:00,
2013-01-15 11:05:00,15.2,8.7,30.00,North,-999,3.0,5.0,75,0.00,,,0.00,401.00,VWS V14.01,2013-01-15 18:05:00,
2013-01-15 11:10:00,15.3,8.8,30.00,North,-999,3.0,4.0,75,0.00,,,0.00,290.00,VWS V14.01,2013-01-15 18:10:00,
2013-01-15 11:15:00,15.3,8.8,29.99,North,-999,3.0,7.0,75,0.00,,,0.00,415.00,VWS V14.01,2013-01-15 18:15:00,
2013-01-15 11:20:00,15.5,9.0,29.99,North,-999,4.0,6.0,75,0.00,,,0.00,369.00,VWS V14.01,2013-01-15 18:20:00,
2013-01-15 11:25:00,15.7,8.9,29.99,North,-999,5.0,10.0,74,0.00,,,0.00,322.00,VWS V14.01,2013-01-15 18:25:00,
2013-01-15 11:30:00,15.7,8.9,30.00,North,-999,3.0,7.0,74,0.00,,,0.00,357.00,VWS V14.01,2013-01-15 18:30:00,
2013-01-15 11:35:00,15.7,8.9,30.00,North,-999,2.0,9.0,74,0.00,,,0.00,267.00,VWS V14.01,2013-01-15 18:35:00,
2013-01-15 11:40:00,15.5,8.7,30.00,North,-999,2.0,3.0,74,0.00,,,0.00,295.00,VWS V14.01,2013-01-15 18:40:00,
2013-01-15 11:45:00,15.7,8.9,30.00,North,-999,2.0,5.0,74,0.00,,,0.00,390.00,VWS V14.01,2013-01-15 18:45:00,
2013-01-15 11:50:00,15.8,9.0,30.00,North,-999,0.0,4.0,74,0.00,,,0.00,450.00,VWS V14.01,2013-01-15 18:50:00,
2013-01-15 11:55:00,16.2,9.4,30.00,North,-999,3.0,4.0,74,0.00,,,0.00,506.00,VWS V14.01,2013-01-15 18:55:00,
2013-01-15 12:00:00,16.2,9.1,30.00,North,-999,0.0,7.0,73,0.00,,,0.00,385.00,VWS V14.01,2013-01-15 19:00:00,
2013-01-15 12:05:00,16.4,9.6,30.00,North,-999,2.0,7.0,74,0.00,,,0.00,406.00,VWS V14.01,2013-01-15 19:05:00,
2013-01-15 12:10:00,16.6,9.5,30.00,North,-999,4.0,5.0,73,0.00,,,0.00,410.00,VWS V14.01,2013-01-15 19:10:00,
2013-01-15 12:15:00,16.8,9.0,30.00,North,-999,3.0,12.0,71,0.00,,,0.00,418.00,VWS V14.01,2013-01-15 19:15:00,
2013-01-15 12:20:00,16.7,8.6,30.00,North,-999,2.0,3.0,70,0.00,,,0.00,455.00,VWS V14.01,2013-01-15 19:20:00,
2013-01-15 12:25:00,16.9,8.8,29.99,North,-999,4.0,12.0,70,0.00,,,0.00,431.00,VWS V14.01,2013-01-15 19:25:00,
2013-01-15 12:30:00,17.0,8.9,30.00,North,-999,4.0,5.0,70,0.00,,,0.00,432.00,VWS V14.01,2013-01-15 19:30:00,
2013-01-15 12:35:00,16.9,8.5,30.00,North,-999,2.0,7.0,69,0.00,,,0.00,510.00,VWS V14.01,2013-01-15 19:35:00,
2013-01-15 12:40:00,16.9,8.5,30.00,North,-999,0.0,2.0,69,0.00,,,0.00,373.00,VWS V14.01,2013-01-15 19:40:00,
2013-01-15 12:45:00,17.2,8.8,29.99,North,-999,11.0,11.0,69,0.00,,,0.00,294.00,VWS V14.01,2013-01-15 19:45:00,
2013-01-15 12:50:00,17.0,8.9,29.99,North,-999,1.0,6.0,70,0.00,,,0.00,359.00,VWS V14.01,2013-01-15 19:50:00,
2013-01-15 12:55:00,17.1,9.0,30.00,North,-999,1.0,6.0,70,0.00,,,0.00,336.00,VWS V14.01,2013-01-15 19:55:00,
2013-01-15 13:00:00,17.1,9.3,29.99,North,-999,7.0,7.0,71,0.00,,,0.00,239.00,VWS V14.01,2013-01-15 20:00:00,
2013-01-15 13:05:00,17.2,9.4,30.00,North,-999,1.0,7.0,71,0.00,,,0.00,306.00,VWS V14.01,2013-01-15 20:05:00,
2013-01-15 13:10:00,17.5,10.0,30.00,North,-999,0.0,4.0,72,0.00,,,0.00,316.00,VWS V14.01,2013-01-15 20:10:00,
2013-01-15 13:15:00,17.5,9.7,30.00,North,-999,2.0,5.0,71,0.00,,,0.00,329.00,VWS V14.01,2013-01-15 20:15:00,
2013-01-15 13:19:00,17.5,10.0,30.00,North,-999,0.0,3.0,72,0.00,,,0.00,397.00,VWS V14.01,2013-01-15 20:19:00,
2013-01-15 13:24:00,17.5,10.0,29.99,North,-999,0.0,5.0,72,0.00,,,0.00,339.00,VWS V14.01,2013-01-15 20:24:00,
2013-01-15 13:29:00,17.7,10.2,30.00,North,-999,1.0,2.0,72,0.00,,,0.00,408.00,VWS V14.01,2013-01-15 20:29:00,
2013-01-15 13:34:00,17.7,10.2,29.99,North,-999,1.0,4.0,72,0.00,,,0.00,410.00,VWS V14.01,2013-01-15 20:34:00,
2013-01-15 13:39:00,17.8,10.3,29.99,North,-999,0.0,3.0,72,0.00,,,0.00,309.00,VWS V14.01,2013-01-15 20:39:00,
2013-01-15 13:44:00,18.0,10.2,29.99,North,-999,1.0,5.0,71,0.00,,,0.00,302.00,VWS V14.01,2013-01-15 20:44:00,
2013-01-15 13:49:00,17.9,10.1,29.99,North,-999,1.0,4.0,71,0.00,,,0.00,221.00,VWS V14.01,2013-01-15 20:49:00,
2013-01-15 13:54:00,17.8,9.7,29.99,North,-999,3.0,6.0,70,0.00,,,0.00,295.00,VWS V14.01,2013-01-15 20:54:00,
2013-01-15 13:59:00,18.0,10.2,29.99,North,-999,4.0,6.0,71,0.00,,,0.00,381.00,VWS V14.01,2013-01-15 20:59:00,
2013-01-15 14:04:00,18.2,10.4,29.99,North,-999,6.0,7.0,71,0.00,,,0.00,396.00,VWS V14.01,2013-01-15 21:04:00,
2013-01-15 14:09:00,18.1,10.3,29.99,North,-999,0.0,3.0,71,0.00,,,0.00,325.00,VWS V14.01,2013-01-15 21:09:00,
2013-01-15 14:14:00,18.2,10.4,29.99,North,-999,5.0,6.0,71,0.00,,,0.00,394.00,VWS V14.01,2013-01-15 21:14:00,
2013-01-15 14:19:00,18.1,10.3,30.00,North,-999,0.0,1.0,71,0.00,,,0.00,367.00,VWS V14.01,2013-01-15 21:19:00,
2013-01-15 14:24:00,18.3,10.5,30.00,North,-999,1.0,4.0,71,0.00,,,0.00,169.00,VWS V14.01,2013-01-15 21:24:00,
2013-01-15 14:29:00,18.1,10.3,30.00,North,-999,1.0,3.0,71,0.00,,,0.00,176.00,VWS V14.01,2013-01-15 21:29:00,
2013-01-15 14:34:00,18.0,10.2,30.00,North,-999,0.0,3.0,71,0.00,,,0.00,190.00,VWS V14.01,2013-01-15 21:34:00,
2013-01-15 14:39:00,18.0,10.2,30.00,North,-999,3.0,5.0,71,0.00,,,0.00,276.00,VWS V14.01,2013-01-15 21:39:00,
2013-01-15 14:44:00,17.9,10.1,30.00,North,-999,2.0,6.0,71,0.00,,,0.00,204.00,VWS V14.01,2013-01-15 21:44:00,
2013-01-15 14:49:00,17.9,10.1,30.00,North,-999,0.0,1.0,71,0.00,,,0.00,188.00,VWS V14.01,2013-01-15 21:49:00,
2013-01-15 14:54:00,18.0,10.2,30.00,North,-999,0.0,3.0,71,0.00,,,0.00,156.00,VWS V14.01,2013-01-15 21:54:00,
2013-01-15 14:59:00,18.0,10.2,30.00,North,-999,0.0,0.0,71,0.00,,,0.00,146.00,VWS V14.01,2013-01-15 21:59:00,
2013-01-15 15:04:00,18.1,10.6,30.00,North,-999,0.0,4.0,72,0.00,,,0.00,171.00,VWS V14.01,2013-01-15 22:04:00,
2013-01-15 15:09:00,18.2,10.7,30.00,North,-999,0.0,0.0,72,0.00,,,0.00,209.00,VWS V14.01,2013-01-15 22:09:00,
2013-01-15 15:14:00,18.3,11.1,30.01,North,-999,0.0,0.0,73,0.00,,,0.00,162.00,VWS V14.01,2013-01-15 22:14:00,
2013-01-15 15:19:00,18.4,10.9,30.01,North,-999,1.0,3.0,72,0.00,,,0.00,125.00,VWS V14.01,2013-01-15 22:19:00,
2013-01-15 15:24:00,18.4,11.2,30.01,North,-999,1.0,3.0,73,0.00,,,0.00,120.00,VWS V14.01,2013-01-15 22:24:00,
2013-01-15 15:29:00,18.4,11.2,30.01,North,-999,0.0,0.0,73,0.00,,,0.00,118.00,VWS V14.01,2013-01-15 22:29:00,
2013-01-15 15:34:00,18.4,11.2,30.01,North,-999,1.0,4.0,73,0.00,,,0.00,127.00,VWS V14.01,2013-01-15 22:34:00,
2013-01-15 15:39:00,18.3,11.4,30.02,North,-999,0.0,0.0,74,0.00,,,0.00,104.00,VWS V14.01,2013-01-15 22:39:00,
2013-01-15 15:44:00,18.2,11.3,30.02,North,-999,1.0,4.0,74,0.00,,,0.00,95.00,VWS V14.01,2013-01-15 22:44:00,
2013-01-15 15:49:00,18.2,11.6,30.02,North,-999,0.0,0.0,75,0.00,,,0.00,90.00,VWS V14.01,2013-01-15 22:49:00,
2013-01-15 15:54:00,18.1,11.5,30.02,North,-999,0.0,9.0,75,0.00,,,0.00,77.00,VWS V14.01,2013-01-15 22:54:00,
2013-01-15 15:59:00,18.0,11.4,30.02,North,-999,0.0,1.0,75,0.00,,,0.00,67.00,VWS V14.01,2013-01-15 22:59:00,
2013-01-15 16:04:00,18.0,11.7,30.03,North,-999,0.0,1.0,76,0.00,,,0.00,56.00,VWS V14.01,2013-01-15 23:04:00,
2013-01-15 16:09:00,17.9,11.6,30.03,North,-999,0.0,0.0,76,0.00,,,0.00,49.00,VWS V14.01,2013-01-15 23:09:00,
2013-01-15 16:14:00,17.8,11.5,30.03,North,-999,0.0,0.0,76,0.00,,,0.00,46.00,VWS V14.01,2013-01-15 23:14:00,
2013-01-15 16:19:00,17.7,11.4,30.03,North,-999,0.0,0.0,76,0.00,,,0.00,42.00,VWS V14.01,2013-01-15 23:19:00,
2013-01-15 16:24:00,17.5,11.2,30.03,North,-999,0.0,0.0,76,0.00,,,0.00,35.00,VWS V14.01,2013-01-15 23:24:00,
2013-01-15 16:29:00,17.5,11.5,30.03,North,-999,0.0,0.0,77,0.00,,,0.00,26.00,VWS V14.01,2013-01-15 23:29:00,
2013-01-15 16:34:00,17.5,11.5,30.03,North,-999,0.0,0.0,77,0.00,,,0.00,19.00,VWS V14.01,2013-01-15 23:34:00,
2013-01-15 16:39:00,17.5,11.8,30.03,North,-999,0.0,0.0,78,0.00,,,0.00,14.00,VWS V14.01,2013-01-15 23:39:00,
2013-01-15 16:44:00,17.6,11.9,30.03,North,-999,1.0,4.0,78,0.00,,,0.00,11.00,VWS V14.01,2013-01-15 23:44:00,
2013-01-15 16:49:00,17.4,12.0,30.03,North,-999,0.0,0.0,79,0.00,,,0.00,7.00,VWS V14.01,2013-01-15 23:49:00,
2013-01-15 16:54:00,17.3,12.2,30.03,North,-999,0.0,0.0,80,0.00,,,0.00,5.00,VWS V14.01,2013-01-15 23:54:00,
2013-01-15 16:59:00,17.2,12.1,30.03,North,-999,0.0,0.0,80,0.00,,,0.00,0.00,VWS V14.01,2013-01-15 23:59:00,
2013-01-15 17:04:00,17.2,12.4,30.03,North,-999,0.0,0.0,81,0.00,,,0.00,7.00,VWS V14.01,2013-01-16 00:04:00,
2013-01-15 17:09:00,17.2,12.4,30.03,North,-999,0.0,0.0,81,0.00,,,0.00,0.00,VWS V14.01,2013-01-16 00:09:00,
2013-01-15 17:14:00,17.1,12.3,30.03,North,-999,0.0,0.0,81,0.00,,,0.00,0.00,VWS V14.01,2013-01-16 00:14:00,
2013-01-15 17:19:00,17.1,12.3,30.03,North,-999,0.0,0.0,81,0.00,,,0.00,0.00,VWS V14.01,2013-01-16 00:19:00,
2013-01-15 17:24:00,17.0,12.2,30.03,North,-999,0.0,0.0,81,0.00,,,0.00,0.00,VWS V14.01,2013-01-16 00:24:00,
2013-01-15 17:29:00,17.0,12.2,30.03,North,-999,0.0,0.0,81,0.00,,,0.00,0.00,VWS V14.01,2013-01-16 00:29:00,
2013-01-15 17:34:00,16.9,12.4,30.04,North,-999,0.0,0.0,82,0.00,,,0.00,0.00,VWS V14.01,2013-01-16 00:34:00,
2013-01-15 17:39:00,16.7,12.2,30.04,North,-999,0.0,0.0,82,0.00,,,0.00,0.00,VWS V14.01,2013-01-16 00:39:00,
2013-01-15 17:44:00,16.6,12.4,30.03,North,-999,0.0,0.0,83,0.00,,,0.00,0.00,VWS V14.01,2013-01-16 00:44:00,
2013-01-15 17:49:00,16.6,12.4,30.03,North,-999,0.0,0.0,83,0.00,,,0.00,0.00,VWS V14.01,2013-01-16 00:49:00,
2013-01-15 17:54:00,16.5,12.2,30.04,North,-999,0.0,0.0,83,0.00,,,0.00,0.00,VWS V14.01,2013-01-16 00:54:00,
2013-01-15 17:59:00,16.5,12.5,30.04,North,-999,0.0,0.0,84,0.00,,,0.00,0.00,VWS V14.01,2013-01-16 00:59:00,
2013-01-15 18:04:00,16.6,12.6,30.05,North,-999,0.0,0.0,84,0.00,,,0.00,0.00,VWS V14.01,2013-01-16 01:04:00,
2013-01-15 18:09:00,16.6,12.6,30.05,North,-999,0.0,0.0,84,0.00,,,0.00,0.00,VWS V14.01,2013-01-16 01:09:00,
2013-01-15 18:14:00,16.5,12.5,30.05,North,-999,0.0,0.0,84,0.00,,,0.00,0.00,VWS V14.01,2013-01-16 01:14:00,
2013-01-15 18:19:00,16.4,12.1,30.04,North,-999,0.0,0.0,83,0.00,,,0.00,0.00,VWS V14.01,2013-01-16 01:19:00,
2013-01-15 18:24:00,16.3,12.3,30.04,North,-999,0.0,0.0,84,0.00,,,0.00,0.00,VWS V14.01,2013-01-16 01:24:00,
2013-01-15 18:29:00,16.2,12.2,30.05,North,-999,0.0,0.0,84,0.00,,,0.00,0.00,VWS V14.01,2013-01-16 01:29:00,
2013-01-15 18:34:00,16.2,12.2,30.05,North,-999,0.0,0.0,84,0.00,,,0.00,0.00,VWS V14.01,2013-01-16 01:34:00,
2013-01-15 18:39:00,15.9,11.7,30.05,North,-999,0.0,0.0,83,0.00,,,0.00,0.00,VWS V14.01,2013-01-16 01:39:00,
2013-01-15 18:44:00,15.7,11.7,30.05,North,-999,0.0,0.0,84,0.00,,,0.00,0.00,VWS V14.01,2013-01-16 01:44:00,
2013-01-15 18:49:00,15.6,11.9,30.05,North,-999,0.0,0.0,85,0.00,,,0.00,0.00,VWS V14.01,2013-01-16 01:49:00,
2013-01-15 18:54:00,15.3,11.3,30.06,North,-999,0.0,0.0,84,0.00,,,0.00,0.00,VWS V14.01,2013-01-16 01:54:00,
2013-01-15 18:59:00,14.9,10.9,30.06,North,-999,0.0,0.0,84,0.00,,,0.00,0.00,VWS V14.01,2013-01-16 01:59:00,
2013-01-15 19:04:00,14.6,10.7,30.06,North,-999,0.0,6.0,84,0.00,,,0.00,0.00,VWS V14.01,2013-01-16 02:04:00,
2013-01-15 19:09:00,14.5,10.8,30.06,North,-999,0.0,0.0,85,0.00,,,0.00,0.00,VWS V14.01,2013-01-16 02:09:00,
2013-01-15 19:13:00,14.4,10.7,30.05,North,-999,0.0,0.0,85,0.00,,,0.00,0.00,VWS V14.01,2013-01-16 02:13:00,
2013-01-15 19:18:00,14.4,10.7,30.05,North,-999,0.0,0.0,85,0.00,,,0.00,0.00,VWS V14.01,2013-01-16 02:18:00,
2013-01-15 19:23:00,14.4,10.7,30.06,North,-999,0.0,0.0,85,0.00,,,0.00,0.00,VWS V14.01,2013-01-16 02:23:00,
2013-01-15 19:28:00,14.1,10.2,30.06,North,-999,0.0,0.0,84,0.00,,,0.00,0.00,VWS V14.01,2013-01-16 02:28:00,
2013-01-15 19:33:00,13.9,10.2,30.06,North,-999,0.0,0.0,85,0.00,,,0.00,0.00,VWS V14.01,2013-01-16 02:33:00,
2013-01-15 19:38:00,13.6,9.9,30.06,North,-999,0.0,0.0,85,0.00,,,0.00,0.00,VWS V14.01,2013-01-16 02:38:00,
2013-01-15 19:43:00,13.6,9.9,30.06,North,-999,0.0,0.0,85,0.00,,,0.00,0.00,VWS V14.01,2013-01-16 02:43:00,
2013-01-15 19:48:00,13.6,9.9,30.05,North,-999,0.0,0.0,85,0.00,,,0.00,0.00,VWS V14.01,2013-01-16 02:48:00,
2013-01-15 19:53:00,13.6,9.9,30.05,North,-999,0.0,0.0,85,0.00,,,0.00,0.00,VWS V14.01,2013-01-16 02:53:00,
2013-01-15 19:58:00,13.6,9.9,30.05,North,-999,0.0,0.0,85,0.00,,,0.00,0.00,VWS V14.01,2013-01-16 02:58:00,
2013-01-15 20:03:00,13.4,9.7,30.05,North,-999,0.0,0.0,85,0.00,,,0.00,0.00,VWS V14.01,2013-01-16 03:03:00,
2013-01-15 20:08:00,13.2,9.6,30.05,North,-999,0.0,0.0,85,0.00,,,0.00,0.00,VWS V14.01,2013-01-16 03:08:00,
2013-01-15 20:13:00,13.1,9.4,30.05,North,-999,0.0,0.0,85,0.00,,,0.00,0.00,VWS V14.01,2013-01-16 03:13:00,
2013-01-15 20:18:00,12.9,9.2,30.05,North,-999,0.0,0.0,85,0.00,,,0.00,0.00,VWS V14.01,2013-01-16 03:18:00,
2013-01-15 20:23:00,12.5,8.9,30.05,North,-999,0.0,0.0,85,0.00,,,0.00,0.00,VWS V14.01,2013-01-16 03:23:00,
2013-01-15 20:28:00,12.5,9.1,30.05,North,-999,0.0,0.0,86,0.00,,,0.00,0.00,VWS V14.01,2013-01-16 03:28:00,
2013-01-15 20:33:00,12.6,9.5,30.05,North,-999,0.0,0.0,87,0.00,,,0.00,0.00,VWS V14.01,2013-01-16 03:33:00,
2013-01-15 20:38:00,13.1,10.0,30.04,North,-999,0.0,0.0,87,0.00,,,0.00,0.00,VWS V14.01,2013-01-16 03:38:00,
2013-01-15 20:43:00,13.2,9.8,30.04,North,-999,0.0,0.0,86,0.00,,,0.00,0.00,VWS V14.01,2013-01-16 03:43:00,
2013-01-15 20:48:00,12.9,9.2,30.04,North,-999,0.0,0.0,85,0.00,,,0.00,0.00,VWS V14.01,2013-01-16 03:48:00,
2013-01-15 20:53:00,12.8,9.1,30.05,North,-999,0.0,0.0,85,0.00,,,0.00,0.00,VWS V14.01,2013-01-16 03:53:00,
2013-01-15 20:58:00,12.8,9.1,30.05,North,-999,0.0,0.0,85,0.00,,,0.00,0.00,VWS V14.01,2013-01-16 03:58:00,
2013-01-15 21:03:00,12.5,8.9,30.04,North,-999,0.0,0.0,85,0.00,,,0.00,0.00,VWS V14.01,2013-01-16 04:03:00,
2013-01-15 21:08:00,12.3,8.7,30.04,North,-999,0.0,0.0,85,0.00,,,0.00,0.00,VWS V14.01,2013-01-16 04:08:00,
2013-01-15 21:13:00,12.6,9.2,30.04,North,-999,0.0,0.0,86,0.00,,,0.00,0.00,VWS V14.01,2013-01-16 04:13:00,
2013-01-15 21:18:00,12.3,8.4,30.04,North,-999,0.0,2.0,84,0.00,,,0.00,0.00,VWS V14.01,2013-01-16 04:18:00,
2013-01-15 21:23:00,12.1,8.5,30.04,North,-999,0.0,0.0,85,0.00,,,0.00,0.00,VWS V14.01,2013-01-16 04:23:00,
2013-01-15 21:28:00,12.1,8.5,30.04,North,-999,4.0,6.0,85,0.00,,,0.00,0.00,VWS V14.01,2013-01-16 04:28:00,
2013-01-15 21:33:00,11.6,7.7,30.04,North,-999,0.0,4.0,84,0.00,,,0.00,0.00,VWS V14.01,2013-01-16 04:33:00,
2013-01-15 21:38:00,11.0,7.1,30.05,North,-999,0.0,4.0,84,0.00,,,0.00,0.00,VWS V14.01,2013-01-16 04:38:00,
2013-01-15 21:43:00,10.8,6.9,30.05,North,-999,0.0,0.0,84,0.00,,,0.00,0.00,VWS V14.01,2013-01-16 04:43:00,
2013-01-15 21:48:00,10.7,7.1,30.04,North,-999,0.0,0.0,85,0.00,,,0.00,0.00,VWS V14.01,2013-01-16 04:48:00,
2013-01-15 21:53:00,10.6,7.0,30.03,North,-999,0.0,0.0,85,0.00,,,0.00,0.00,VWS V14.01,2013-01-16 04:53:00,
2013-01-15 21:58:00,10.1,6.2,30.04,North,-999,0.0,0.0,84,0.00,,,0.00,0.00,VWS V14.01,2013-01-16 04:58:00,
2013-01-15 22:00:00,10.0,6.1,30.05,North,-999,0.0,0.0,84,0.00,,,0.00,0.00,VWS V14.01,2013-01-16 05:00:00,
2013-01-15 22:02:00,9.9,6.0,30.04,North,-999,0.0,0.0,84,0.00,,,0.00,0.00,VWS V14.01,2013-01-16 05:02:00,
2013-01-15 22:07:00,9.9,6.3,30.04,North,-999,0.0,0.0,85,0.00,,,0.00,0.00,VWS V14.01,2013-01-16 05:07:00,
2013-01-15 22:12:00,10.2,6.8,30.04,North,-999,0.0,0.0,86,0.00,,,0.00,0.00,VWS V14.01,2013-01-16 05:12:00,
2013-01-15 22:17:00,11.0,7.9,30.05,North,-999,0.0,0.0,87,0.00,,,0.00,0.00,VWS V14.01,2013-01-16 05:17:00,
2013-01-15 22:22:00,11.8,8.4,30.05,North,-999,0.0,0.0,86,0.00,,,0.00,0.00,VWS V14.01,2013-01-16 05:22:00,
2013-01-15 22:27:00,12.3,8.9,30.04,North,-999,0.0,0.0,86,0.00,,,0.00,0.00,VWS V14.01,2013-01-16 05:27:00,
2013-01-15 22:32:00,12.5,8.9,30.04,North,-999,0.0,2.0,85,0.00,,,0.00,0.00,VWS V14.01,2013-01-16 05:32:00,
2013-01-15 22:37:00,12.9,9.2,30.05,North,-999,0.0,2.0,85,0.00,,,0.00,0.00,VWS V14.01,2013-01-16 05:37:00,
2013-01-15 22:42:00,12.7,8.5,30.05,North,-999,0.0,0.0,83,0.00,,,0.00,0.00,VWS V14.01,2013-01-16 05:42:00,
2013-01-15 22:47:00,12.3,7.9,30.05,North,-999,0.0,0.0,82,0.00,,,0.00,0.00,VWS V14.01,2013-01-16 05:47:00,
2013-01-15 22:52:00,11.7,7.3,30.05,North,-999,0.0,0.0,82,0.00,,,0.00,0.00,VWS V14.01,2013-01-16 05:52:00,
2013-01-15 22:57:00,11.2,7.1,30.05,North,-999,0.0,0.0,83,0.00,,,0.00,0.00,VWS V14.01,2013-01-16 05:57:00,
2013-01-15 23:02:00,11.3,7.4,30.05,North,-999,0.0,3.0,84,0.00,,,0.00,0.00,VWS V14.01,2013-01-16 06:02:00,
2013-01-15 23:07:00,11.4,7.5,30.05,North,-999,0.0,3.0,84,0.00,,,0.00,0.00,VWS V14.01,2013-01-16 06:07:00,
2013-01-15 23:12:00,11.6,7.7,30.05,North,-999,0.0,0.0,84,0.00,,,0.00,0.00,VWS V14.01,2013-01-16 06:12:00,
2013-01-15 23:17:00,11.7,7.8,30.05,North,-999,0.0,0.0,84,0.00,,,0.00,0.00,VWS V14.01,2013-01-16 06:17:00,
2013-01-15 23:22:00,11.4,7.2,30.06,North,-999,0.0,0.0,83,0.00,,,0.00,0.00,VWS V14.01,2013-01-16 06:22:00,
2013-01-15 23:27:00,11.1,7.0,30.06,North,-999,0.0,0.0,83,0.00,,,0.00,0.00,VWS V14.01,2013-01-16 06:27:00,
2013-01-15 23:32:00,11.1,7.2,30.06,North,-999,0.0,0.0,84,0.00,,,0.00,0.00,VWS V14.01,2013-01-16 06:32:00,
2013-01-15 23:37:00,11.0,7.1,30.06,North,-999,0.0,5.0,84,0.00,,,0.00,0.00,VWS V14.01,2013-01-16 06:37:00,
2013-01-15 23:42:00,10.8,6.9,30.05,North,-999,0.0,0.0,84,0.00,,,0.00,0.00,VWS V14.01,2013-01-16 06:42:00,
2013-01-15 23:47:00,10.5,6.4,30.06,North,-999,0.0,0.0,83,0.00,,,0.00,0.00,VWS V14.01,2013-01-16 06:47:00,
2013-01-15 23:52:00,10.4,6.5,30.06,North,-999,0.0,0.0,84,0.00,,,0.00,0.00,VWS V14.01,2013-01-16 06:52:00,
2013-01-15 23:57:00,10.4,6.8,30.05,North,-999,0.0,2.0,85,0.00,,,0.00,0.00,VWS V14.01,2013-01-16 06:57:00,